createdAt,value
2019-04-28T00:00:06.010Z,73.00
2019-04-28T00:02:42.736Z,71.70
2019-04-28T00:05:27.292Z,71.60
2019-04-28T00:07:58.578Z,72.40
2019-04-28T00:10:35.768Z,69.70
2019-04-28T00:13:11.266Z,69.60
2019-04-28T00:15:46.959Z,70.30
2019-04-28T00:18:22.101Z,68.40
2019-04-28T00:20:58.575Z,67.60
2019-04-28T00:23:52.453Z,66.60
2019-04-28T00:26:44.283Z,69.10
2019-04-28T00:29:37.131Z,67.20
2019-04-28T00:31:58.111Z,69.80
2019-04-28T00:34:33.093Z,66.70
2019-04-28T00:37:14.156Z,66.80
2019-04-28T00:39:50.850Z,68.40
2019-04-28T00:42:26.490Z,66.20
2019-04-28T00:45:01.934Z,65.60
2019-04-28T00:47:38.211Z,66.30
2019-04-28T00:50:13.415Z,66.80
2019-04-28T00:52:48.667Z,64.60
2019-04-28T00:55:32.013Z,64.30
2019-04-28T00:58:08.261Z,63.00
2019-04-28T01:00:47.763Z,62.70
2019-04-28T01:03:23.902Z,64.50
2019-04-28T01:05:59.441Z,63.90
2019-04-28T01:08:34.603Z,65.80
2019-04-28T01:11:11.360Z,64.00
2019-04-28T01:13:46.304Z,65.00
2019-04-28T01:16:31.363Z,63.30
2019-04-28T01:19:20.253Z,60.70
2019-04-28T01:22:12.122Z,61.70
2019-04-28T01:24:49.556Z,60.60
2019-04-28T01:27:31.927Z,61.70
2019-04-28T01:30:11.316Z,61.80
2019-04-28T01:32:50.290Z,61.90
2019-04-28T01:35:25.626Z,63.20
2019-04-28T01:38:00.562Z,62.30
2019-04-28T01:40:36.115Z,61.20
2019-04-28T01:43:11.183Z,62.40
2019-04-28T01:45:46.439Z,61.30
2019-04-28T01:48:21.368Z,59.80
2019-04-28T01:50:59.735Z,61.80
2019-04-28T01:53:34.307Z,59.10
2019-04-28T01:56:10.618Z,59.90
2019-04-28T01:58:45.463Z,60.80
2019-04-28T02:01:20.583Z,60.60
2019-04-28T02:03:55.479Z,60.90
2019-04-28T02:06:36.995Z,63.20
2019-04-28T02:09:14.569Z,61.30
2019-04-28T02:11:49.877Z,62.80
2019-04-28T02:14:24.898Z,61.60
2019-04-28T02:17:03.084Z,59.00
2019-04-28T02:19:38.144Z,59.70
2019-04-28T02:22:21.260Z,61.10
2019-04-28T02:24:56.364Z,62.20
2019-04-28T02:27:33.696Z,58.90
2019-04-28T02:30:11.788Z,62.00
2019-04-28T02:32:47.225Z,62.10
2019-04-28T02:35:23.844Z,59.70
2019-04-28T02:38:00.094Z,57.90
2019-04-28T02:40:36.146Z,60.00
2019-04-28T02:43:11.651Z,60.00
2019-04-28T02:45:46.700Z,57.10
2019-04-28T02:48:23.505Z,59.90
2019-04-28T02:51:11.584Z,58.30
2019-04-28T02:53:50.862Z,56.90
2019-04-28T02:56:26.855Z,56.90
2019-04-28T02:59:05.342Z,57.90
2019-04-28T03:01:41.377Z,57.20
2019-04-28T03:04:17.269Z,57.70
2019-04-28T03:06:52.631Z,55.90
2019-04-28T03:09:30.789Z,56.30
2019-04-28T03:12:05.928Z,54.80
2019-04-28T03:14:44.145Z,56.90
2019-04-28T03:17:17.668Z,58.60
2019-04-28T03:19:54.162Z,55.60
2019-04-28T03:22:31.227Z,54.80
2019-04-28T03:25:07.250Z,54.70
2019-04-28T03:28:02.287Z,54.80
2019-04-28T03:30:43.438Z,54.70
2019-04-28T03:33:26.837Z,54.00
2019-04-28T03:36:03.689Z,53.10
2019-04-28T03:38:36.983Z,53.50
2019-04-28T03:41:12.684Z,54.20
2019-04-28T03:43:51.116Z,53.60
2019-04-28T03:46:32.010Z,53.40
2019-04-28T03:49:07.021Z,53.60
2019-04-28T03:51:42.696Z,54.30
2019-04-28T03:54:20.302Z,54.50
2019-04-28T03:56:54.557Z,54.40
2019-04-28T03:59:31.190Z,55.70
2019-04-28T04:02:06.344Z,54.90
2019-04-28T04:04:41.789Z,54.40
2019-04-28T04:07:17.069Z,58.00
2019-04-28T04:10:02.488Z,55.20
2019-04-28T04:12:50.652Z,55.90
2019-04-28T04:15:26.141Z,55.80
2019-04-28T04:18:05.245Z,57.00
2019-04-28T04:20:40.912Z,57.40
2019-04-28T04:23:16.894Z,56.90
2019-04-28T04:25:51.903Z,56.80
2019-04-28T04:28:30.243Z,57.30
2019-04-28T04:31:04.393Z,57.00
2019-04-28T04:33:41.080Z,57.50
2019-04-28T04:36:15.855Z,57.70
2019-04-28T04:38:51.715Z,57.20
2019-04-28T04:41:26.854Z,59.10
2019-04-28T04:44:02.037Z,57.30
2019-04-28T04:46:41.426Z,57.20
2019-04-28T04:49:16.500Z,56.20
2019-04-28T04:51:51.589Z,57.30
2019-04-28T04:54:26.866Z,57.80
2019-04-28T04:57:01.938Z,57.00
2019-04-28T04:59:40.140Z,57.90
2019-04-28T05:02:29.569Z,58.60
2019-04-28T05:05:00.496Z,58.80
2019-04-28T05:07:35.650Z,59.70
2019-04-28T05:10:11.687Z,60.40
2019-04-28T05:12:46.753Z,60.80
2019-04-28T05:15:21.766Z,61.40
2019-04-28T05:17:57.149Z,61.90
2019-04-28T05:20:32.948Z,60.70
2019-04-28T05:23:21.481Z,62.50
2019-04-28T05:25:57.000Z,61.10
2019-04-28T05:28:36.419Z,62.20
2019-04-28T05:31:13.581Z,62.60
2019-04-28T05:33:46.103Z,63.20
2019-04-28T05:36:21.373Z,63.80
2019-04-28T05:38:56.250Z,63.20
2019-04-28T05:41:31.835Z,64.10
2019-04-28T05:44:09.930Z,65.80
2019-04-28T05:46:44.732Z,64.50
2019-04-28T05:49:21.338Z,65.30
2019-04-28T05:51:57.917Z,65.90
2019-04-28T05:54:36.710Z,65.30
2019-04-28T05:57:23.342Z,65.40
2019-04-28T06:00:01.111Z,66.70
2019-04-28T06:02:54.085Z,67.60
2019-04-28T06:05:19.922Z,66.60
2019-04-28T06:08:10.015Z,66.80
2019-04-28T06:10:45.025Z,68.40
2019-04-28T06:13:20.782Z,67.20
2019-04-28T06:16:14.481Z,67.60
2019-04-28T06:18:50.250Z,67.70
2019-04-28T06:21:25.205Z,68.20
2019-04-28T06:24:00.646Z,68.20
2019-04-28T06:26:35.574Z,69.00
2019-04-28T06:29:11.176Z,70.20
2019-04-28T06:31:46.628Z,70.90
2019-04-28T06:34:22.483Z,70.50
2019-04-28T06:37:15.137Z,71.30
2019-04-28T06:39:50.556Z,71.50
2019-04-28T06:42:31.216Z,74.10
2019-04-28T06:45:06.671Z,74.80
2019-04-28T06:47:41.588Z,76.10
2019-04-28T06:50:16.828Z,76.30
2019-04-28T06:52:51.825Z,76.90
2019-04-28T06:55:27.063Z,77.70
2019-04-28T06:58:02.590Z,79.00
2019-04-28T07:00:37.900Z,79.70
2019-04-28T07:03:22.606Z,79.50
2019-04-28T07:05:50.458Z,81.70
2019-04-28T07:08:25.528Z,83.50
2019-04-28T07:11:13.319Z,83.80
2019-04-28T07:13:48.451Z,84.90
2019-04-28T07:16:24.990Z,86.30
2019-04-28T07:19:00.025Z,86.90
2019-04-28T07:21:36.963Z,88.50
2019-04-28T07:24:12.402Z,90.10
2019-04-28T07:26:48.144Z,90.00
2019-04-28T07:32:12.072Z,90.70
2019-04-28T07:34:46.985Z,90.80
2019-04-28T07:37:23.232Z,91.10
2019-04-28T07:39:58.200Z,92.00
2019-04-28T07:42:33.421Z,92.10
2019-04-28T07:45:09.651Z,92.50
2019-04-28T07:47:45.139Z,92.80
2019-04-28T07:50:22.274Z,93.10
2019-04-28T07:52:59.198Z,93.30
2019-04-28T07:55:34.262Z,93.50
2019-04-28T07:58:28.891Z,93.70
2019-04-28T08:01:04.086Z,94.20
2019-04-28T08:03:48.790Z,94.50
2019-04-28T08:06:15.883Z,94.70
2019-04-28T08:08:52.069Z,95.00
2019-04-28T08:11:29.304Z,95.10
2019-04-28T08:14:06.825Z,95.30
2019-04-28T08:16:41.827Z,95.30
2019-04-28T08:19:17.412Z,95.60
2019-04-28T08:21:52.346Z,96.00
2019-04-28T08:24:45.959Z,96.00
2019-04-28T08:27:20.958Z,96.20
2019-04-28T08:29:58.725Z,96.50
2019-04-28T08:32:35.461Z,96.60
2019-04-28T08:35:11.486Z,96.90
2019-04-28T08:37:46.481Z,96.80
2019-04-28T08:40:23.183Z,96.90
2019-04-28T08:42:58.535Z,97.10
2019-04-28T08:45:33.881Z,97.10
2019-04-28T08:48:08.735Z,97.20
2019-04-28T08:50:44.670Z,97.30
2019-04-28T08:53:20.117Z,97.40
2019-04-28T08:55:56.381Z,97.40
2019-04-28T08:58:34.595Z,97.60
2019-04-28T09:01:10.796Z,97.70
2019-04-28T09:03:45.792Z,97.80
2019-04-28T09:06:20.948Z,97.90
2019-04-28T09:08:56.076Z,98.10
2019-04-28T09:11:32.207Z,98.40
2019-04-28T09:14:07.177Z,98.30
2019-04-28T09:16:46.615Z,98.30
2019-04-28T09:19:21.110Z,98.50
2019-04-28T09:21:56.534Z,98.60
2019-04-28T09:24:31.483Z,98.70
2019-04-28T09:27:07.048Z,98.80
2019-04-28T09:29:41.988Z,98.80
2019-04-28T09:32:17.560Z,98.90
2019-04-28T09:34:52.245Z,99.00
2019-04-28T09:37:29.371Z,98.90
2019-04-28T09:40:05.001Z,98.90
2019-04-28T09:42:42.278Z,98.90
2019-04-28T09:45:23.190Z,99.10
2019-04-28T09:47:58.460Z,99.30
2019-04-28T09:50:34.660Z,99.40
2019-04-28T09:53:10.899Z,99.40
2019-04-28T09:55:46.990Z,99.60
2019-04-28T09:58:23.916Z,99.80
2019-04-28T10:01:00.330Z,99.70
2019-04-28T10:03:37.385Z,99.70
2019-04-28T10:06:13.787Z,99.90
2019-04-28T10:08:50.573Z,99.90
2019-04-28T10:11:30.768Z,99.90
2019-04-28T10:14:05.107Z,99.90
2019-04-28T10:16:41.520Z,99.90
2019-04-28T10:19:18.186Z,99.90
2019-04-28T10:21:54.713Z,99.90
2019-04-28T10:24:33.197Z,99.90
2019-04-28T10:27:10.220Z,99.90
2019-04-28T10:29:46.881Z,99.90
2019-04-28T10:32:23.396Z,99.90
2019-04-28T10:35:00.285Z,99.90
2019-04-28T10:37:37.980Z,99.90
2019-04-28T10:40:16.895Z,99.90
2019-04-28T10:42:53.622Z,99.90
2019-04-28T10:45:32.230Z,99.90
2019-04-28T10:48:08.650Z,99.90
2019-04-28T10:50:45.579Z,99.90
2019-04-28T10:53:22.154Z,99.90
2019-04-28T10:55:58.853Z,99.90
2019-04-28T10:58:35.360Z,99.90
2019-04-28T11:01:12.161Z,99.90
2019-04-28T11:03:49.623Z,99.90
2019-04-28T11:06:26.325Z,99.90
2019-04-28T11:09:03.895Z,99.90
2019-04-28T11:11:41.743Z,99.90
2019-04-28T11:14:18.302Z,99.90
2019-04-28T11:16:55.622Z,99.90
2019-04-28T11:19:32.109Z,99.90
2019-04-28T11:22:08.995Z,99.90
2019-04-28T11:24:45.779Z,99.90
2019-04-28T11:27:21.572Z,99.90
2019-04-28T11:29:57.363Z,99.90
2019-04-28T11:33:03.791Z,99.90
2019-04-28T11:35:40.212Z,99.90
2019-04-28T11:38:16.205Z,99.90
2019-04-28T11:40:55.126Z,99.90
2019-04-28T11:43:30.840Z,99.90
2019-04-28T11:46:07.363Z,99.90
2019-04-28T11:48:43.534Z,99.90
2019-04-28T11:51:18.592Z,99.90
2019-04-28T11:53:55.772Z,99.90
2019-04-28T11:56:40.753Z,99.90
2019-04-28T11:59:08.531Z,99.90
2019-04-28T12:01:43.545Z,99.90
2019-04-28T12:04:20.069Z,99.90
2019-04-28T12:06:55.615Z,99.90
2019-04-28T12:09:35.217Z,99.90
2019-04-28T12:12:28.801Z,99.90
2019-04-28T12:15:06.844Z,99.90
2019-04-28T12:17:43.412Z,99.90
2019-04-28T12:20:29.157Z,99.90
2019-04-28T12:23:05.855Z,99.90
2019-04-28T12:25:44.484Z,99.90
2019-04-28T12:28:22.800Z,99.90
2019-04-28T12:31:03.890Z,99.90
2019-04-28T12:33:37.190Z,99.90
2019-04-28T12:36:13.561Z,99.90
2019-04-28T12:38:50.134Z,99.90
2019-04-28T12:41:28.718Z,99.90
2019-04-28T12:44:08.500Z,99.90
2019-04-28T12:46:43.933Z,99.90
2019-04-28T12:49:26.561Z,99.90
2019-04-28T12:52:04.024Z,99.90
2019-04-28T12:54:40.857Z,99.90
2019-04-28T12:57:17.389Z,99.90
2019-04-28T12:59:57.450Z,99.90
2019-04-28T13:02:50.715Z,99.90
2019-04-28T13:05:25.944Z,99.90
2019-04-28T13:08:03.213Z,99.90
2019-04-28T13:10:39.342Z,99.90
2019-04-28T13:13:16.026Z,99.90
2019-04-28T13:15:51.479Z,99.90
2019-04-28T13:18:49.076Z,99.90
2019-04-28T13:21:29.731Z,99.90
2019-04-28T13:24:09.283Z,99.90
2019-04-28T13:26:47.958Z,99.90
2019-04-28T13:29:27.539Z,99.90
2019-04-28T13:32:07.889Z,99.90
2019-04-28T13:34:48.149Z,99.90
2019-04-28T13:37:22.003Z,99.90
2019-04-28T13:39:58.820Z,99.90
2019-04-28T13:42:33.744Z,99.90
2019-04-28T13:45:13.140Z,99.90
2019-04-28T13:47:52.458Z,99.90
2019-04-28T13:50:30.063Z,99.90
2019-04-28T13:53:05.800Z,99.90
2019-04-28T13:55:48.416Z,99.90
2019-04-28T13:58:28.452Z,99.90
2019-04-28T14:01:16.628Z,99.90
2019-04-28T14:03:58.799Z,99.90
2019-04-28T14:06:34.983Z,99.90
2019-04-28T14:09:12.381Z,99.90
2019-04-28T14:11:48.594Z,99.90
2019-04-28T14:14:23.435Z,99.90
2019-04-28T14:16:59.312Z,99.90
2019-04-28T14:19:34.365Z,99.90
2019-04-28T14:22:10.422Z,99.90
2019-04-28T14:24:45.255Z,99.90
2019-04-28T14:27:21.080Z,99.90
2019-04-28T14:29:56.349Z,99.90
2019-04-28T14:32:31.673Z,99.90
2019-04-28T14:35:07.484Z,99.90
2019-04-28T14:37:42.600Z,99.90
2019-04-28T14:40:17.973Z,99.90
2019-04-28T14:42:53.198Z,99.90
2019-04-28T14:45:29.237Z,99.90
2019-04-28T14:48:04.384Z,99.90
2019-04-28T14:50:39.577Z,99.90
2019-04-28T14:53:21.630Z,99.90
2019-04-28T14:55:56.643Z,99.90
2019-04-28T14:58:48.212Z,99.90
2019-04-28T15:01:41.636Z,99.90
2019-04-28T15:04:21.056Z,99.90
2019-04-28T15:06:59.591Z,99.90
2019-04-28T15:09:51.063Z,99.90
2019-04-28T15:12:26.029Z,99.90
2019-04-28T15:15:01.167Z,99.90
2019-04-28T15:17:36.042Z,99.90
2019-04-28T15:20:11.203Z,99.90
2019-04-28T15:22:46.138Z,99.90
2019-04-28T15:25:21.277Z,99.90
2019-04-28T15:27:57.195Z,99.90
2019-04-28T15:30:32.544Z,99.90
2019-04-28T15:33:07.365Z,99.90
2019-04-28T15:35:42.600Z,99.90
2019-04-28T15:38:17.655Z,99.90
2019-04-28T15:41:21.365Z,99.90
2019-04-28T15:43:48.366Z,99.90
2019-04-28T15:46:23.482Z,99.90
2019-04-28T15:48:58.382Z,99.90
2019-04-28T15:51:39.869Z,99.90
2019-04-28T15:54:15.014Z,99.90
2019-04-28T15:56:50.718Z,99.90
2019-04-28T15:59:25.620Z,99.90
2019-04-28T16:02:00.672Z,99.90
2019-04-28T16:04:35.480Z,99.90
2019-04-28T16:07:23.982Z,99.90
2019-04-28T16:09:46.667Z,99.90
2019-04-28T16:12:41.278Z,99.90
2019-04-28T16:15:16.184Z,99.90
2019-04-28T16:17:51.543Z,99.90
2019-04-28T16:20:26.279Z,99.90
2019-04-28T16:23:02.698Z,99.90
2019-04-28T16:25:38.260Z,99.90
2019-04-28T16:28:13.543Z,99.90
2019-04-28T16:30:48.444Z,99.90
2019-04-28T16:33:23.465Z,99.90
2019-04-28T16:35:58.901Z,99.90
2019-04-28T16:38:34.242Z,99.90
2019-04-28T16:41:09.192Z,99.90
2019-04-28T16:43:44.275Z,99.90
2019-04-28T16:46:19.043Z,99.90
2019-04-28T16:48:54.309Z,99.90
2019-04-28T16:51:29.731Z,99.90
2019-04-28T16:54:05.478Z,99.90
2019-04-28T16:56:44.569Z,99.90
2019-04-28T16:59:39.612Z,99.90
2019-04-28T17:02:15.992Z,99.90
2019-04-28T17:04:51.822Z,99.90
2019-04-28T17:07:26.805Z,99.90
2019-04-28T17:10:01.879Z,99.90
2019-04-28T17:12:36.937Z,99.90
2019-04-28T17:15:12.031Z,99.90
2019-04-28T17:17:47.256Z,99.90
2019-04-28T17:20:22.547Z,99.90
2019-04-28T17:22:57.423Z,99.90
2019-04-28T17:25:33.326Z,99.90
2019-04-28T17:28:09.607Z,99.90
2019-04-28T17:30:44.930Z,99.90
2019-04-28T17:33:19.609Z,99.90
2019-04-28T17:35:54.775Z,99.70
2019-04-28T17:38:29.693Z,99.70
2019-04-28T17:41:05.521Z,99.60
2019-04-28T17:43:40.461Z,99.50
2019-04-28T17:46:16.398Z,99.40
2019-04-28T17:48:56.157Z,99.40
2019-04-28T17:51:31.328Z,99.60
2019-04-28T17:54:07.342Z,99.40
2019-04-28T17:56:43.133Z,99.40
2019-04-28T17:59:17.853Z,99.50
2019-04-28T18:02:03.942Z,99.60
2019-04-28T18:04:46.439Z,99.30
2019-04-28T18:07:32.220Z,99.40
2019-04-28T18:10:08.554Z,99.30
2019-04-28T18:16:32.922Z,99.40
2019-04-28T18:19:15.422Z,99.20
2019-04-28T18:25:52.156Z,99.50
2019-04-28T18:39:27.956Z,99.90
2019-04-28T18:42:10.466Z,99.90
2019-04-28T18:44:45.888Z,99.90
2019-04-28T18:47:20.879Z,99.90
2019-04-28T18:49:56.610Z,99.90
2019-04-28T18:52:31.558Z,99.90
2019-04-28T18:55:07.655Z,99.90
2019-04-28T18:57:42.727Z,99.70
2019-04-28T19:00:19.388Z,99.60
2019-04-28T19:02:54.341Z,99.40
2019-04-28T19:05:30.706Z,99.40
2019-04-28T19:08:06.707Z,99.50
2019-04-28T19:10:55.702Z,99.60
2019-04-28T19:13:31.999Z,99.50
2019-04-28T19:16:08.409Z,99.40
2019-04-28T19:18:44.493Z,99.30
2019-04-28T19:21:19.595Z,99.10
2019-04-28T19:23:54.517Z,99.10
2019-04-28T19:26:43.278Z,99.20
2019-04-28T19:29:21.234Z,99.10
2019-04-28T19:31:56.691Z,99.00
2019-04-28T19:34:31.531Z,99.00
2019-04-28T19:37:06.666Z,99.00
2019-04-28T19:39:42.122Z,99.10
2019-04-28T19:42:17.959Z,99.10
2019-04-28T19:44:52.918Z,99.30
2019-04-28T19:47:28.549Z,99.30
2019-04-28T19:50:03.473Z,99.30
2019-04-28T19:52:42.503Z,99.40
2019-04-28T19:55:19.703Z,99.30
2019-04-28T19:58:05.012Z,99.50
2019-04-28T20:00:41.548Z,99.60
2019-04-28T20:03:18.155Z,99.40
2019-04-28T20:05:53.365Z,99.50
2019-04-28T20:08:28.283Z,99.40
2019-04-28T20:11:03.029Z,99.30
2019-04-28T20:13:38.804Z,99.80
2019-04-28T20:16:13.747Z,99.40
2019-04-28T20:18:49.184Z,99.70
2019-04-28T20:21:24.599Z,99.70
2019-04-28T20:24:19.572Z,99.70
2019-04-28T20:26:55.256Z,99.70
2019-04-28T20:29:31.624Z,99.80
2019-04-28T20:32:06.780Z,99.80
2019-04-28T20:34:41.982Z,99.70
2019-04-28T20:37:18.063Z,99.60
2019-04-28T20:39:55.626Z,99.50
2019-04-28T20:42:39.597Z,99.60
2019-04-28T20:45:16.479Z,99.70
2019-04-28T20:47:51.645Z,99.40
2019-04-28T20:50:26.976Z,99.50
2019-04-28T20:53:02.126Z,99.50
2019-04-28T20:55:37.478Z,99.50
2019-04-28T20:58:12.418Z,99.40
2019-04-28T21:00:48.898Z,99.00
2019-04-28T21:03:23.882Z,99.10
2019-04-28T21:06:00.109Z,99.30
2019-04-28T21:08:34.969Z,98.90
2019-04-28T21:11:10.177Z,99.00
2019-04-28T21:13:45.072Z,99.20
2019-04-28T21:16:21.521Z,98.90
2019-04-28T21:18:56.959Z,98.70
2019-04-28T21:21:32.032Z,98.70
2019-04-28T21:24:06.878Z,98.60
2019-04-28T21:26:42.634Z,98.60
2019-04-28T21:29:17.593Z,98.50
2019-04-28T21:31:53.182Z,98.40
2019-04-28T21:34:28.588Z,98.00
2019-04-28T21:37:04.908Z,98.00
2019-04-28T21:39:39.829Z,97.90
2019-04-28T21:42:16.795Z,97.70
2019-04-28T21:44:52.809Z,97.30
2019-04-28T21:47:35.552Z,97.10
2019-04-28T21:50:11.324Z,97.10
2019-04-28T21:52:46.828Z,96.90
2019-04-28T21:55:21.699Z,97.00
2019-04-28T21:57:57.978Z,97.30
2019-04-28T22:00:36.081Z,97.50
2019-04-28T22:03:29.158Z,97.20
2019-04-28T22:06:05.455Z,96.90
2019-04-28T22:08:40.928Z,97.00
2019-04-28T22:11:15.904Z,96.90
2019-04-28T22:13:52.960Z,96.90
2019-04-28T22:16:27.934Z,96.80
2019-04-28T22:19:03.197Z,97.20
2019-04-28T22:21:37.972Z,96.90
2019-04-28T22:24:23.558Z,96.80
2019-04-28T22:27:02.272Z,97.00
2019-04-28T22:29:37.519Z,96.80
2019-04-28T22:32:12.623Z,96.70
2019-04-28T22:34:48.806Z,96.50
2019-04-28T22:37:24.075Z,96.50
2019-04-28T22:39:59.386Z,96.50
2019-04-28T22:42:34.303Z,96.40
2019-04-28T22:45:10.503Z,96.80
2019-04-28T22:47:45.646Z,96.70
2019-04-28T22:50:41.278Z,96.80
2019-04-28T22:53:17.593Z,96.90
2019-04-28T22:55:54.084Z,96.80
2019-04-28T22:58:29.810Z,96.60
2019-04-28T23:01:12.182Z,96.70
2019-04-28T23:03:48.413Z,96.50
2019-04-28T23:06:24.348Z,96.40
2019-04-28T23:09:00.834Z,96.30
2019-04-28T23:11:37.409Z,96.00
2019-04-28T23:14:14.221Z,96.20
2019-04-28T23:16:49.307Z,96.10
2019-04-28T23:19:25.358Z,96.10
2019-04-28T23:22:10.565Z,95.80
2019-04-28T23:24:45.391Z,95.90
2019-04-28T23:27:20.491Z,95.70
2019-04-28T23:29:55.493Z,95.60
2019-04-28T23:32:31.784Z,95.60
2019-04-28T23:35:07.184Z,95.60
2019-04-28T23:37:43.388Z,95.60
2019-04-28T23:40:18.483Z,95.30
2019-04-28T23:42:54.660Z,95.00
2019-04-28T23:45:29.836Z,94.90
2019-04-28T23:48:08.798Z,94.90
2019-04-28T23:50:50.948Z,94.60
2019-04-28T23:53:43.456Z,94.50
2019-04-28T23:56:18.575Z,94.60
2019-04-28T23:58:53.784Z,94.30
